createdAt,value
2018-07-19T00:00:39.986Z,0
2018-07-19T00:01:41.682Z,0
2018-07-19T00:02:43.377Z,0
2018-07-19T00:03:45.225Z,0
2018-07-19T00:04:50.393Z,0
2018-07-19T00:05:52.109Z,0
2018-07-19T00:06:54.146Z,0
2018-07-19T00:07:55.773Z,0
2018-07-19T00:08:57.515Z,0
2018-07-19T00:09:59.203Z,0
2018-07-19T00:11:01.714Z,0
2018-07-19T00:12:03.706Z,0
2018-07-19T00:13:05.366Z,0
2018-07-19T00:14:07.102Z,0
2018-07-19T00:15:09.112Z,0
2018-07-19T00:16:11.119Z,0
2018-07-19T00:17:12.909Z,0
2018-07-19T00:18:14.622Z,0
2018-07-19T00:19:16.605Z,0
2018-07-19T00:20:18.958Z,0
2018-07-19T00:21:21.100Z,0
2018-07-19T00:22:22.852Z,0
2018-07-19T00:23:24.997Z,0
2018-07-19T00:24:26.682Z,0
2018-07-19T00:25:28.572Z,0
2018-07-19T00:26:30.270Z,0
2018-07-19T00:27:32.043Z,0
2018-07-19T00:28:33.786Z,0
2018-07-19T00:29:35.568Z,0
2018-07-19T00:30:37.284Z,0
2018-07-19T00:31:38.994Z,0
2018-07-19T00:32:40.713Z,0
2018-07-19T00:33:42.366Z,0
2018-07-19T00:34:44.066Z,0
2018-07-19T00:35:45.917Z,0
2018-07-19T00:36:47.611Z,0
2018-07-19T00:37:49.266Z,0
2018-07-19T00:38:50.940Z,0
2018-07-19T00:39:52.451Z,0
2018-07-19T00:40:54.237Z,0
2018-07-19T00:41:55.952Z,0
2018-07-19T00:42:57.684Z,0
2018-07-19T00:43:59.437Z,0
2018-07-19T00:45:01.208Z,0
2018-07-19T00:46:03.065Z,0
2018-07-19T00:47:05.025Z,0
2018-07-19T00:48:06.708Z,0
2018-07-19T00:49:08.441Z,0
2018-07-19T00:50:10.094Z,0
2018-07-19T00:51:12.003Z,0
2018-07-19T00:52:13.724Z,0
2018-07-19T00:53:15.511Z,0
2018-07-19T00:54:17.190Z,0
2018-07-19T00:55:19.186Z,0
2018-07-19T00:56:21.610Z,0
2018-07-19T00:57:23.065Z,0
2018-07-19T00:58:25.330Z,0
2018-07-19T00:59:27.539Z,0
2018-07-19T01:00:29.393Z,0
2018-07-19T01:01:31.343Z,0
2018-07-19T01:02:33.162Z,0
2018-07-19T01:03:34.905Z,0
2018-07-19T01:04:36.637Z,0
2018-07-19T01:05:38.312Z,0
2018-07-19T01:06:40.059Z,0
2018-07-19T01:07:41.741Z,0
2018-07-19T01:08:43.444Z,0
2018-07-19T01:09:45.660Z,0
2018-07-19T01:10:47.360Z,0
2018-07-19T01:11:49.044Z,0
2018-07-19T01:12:50.722Z,0
2018-07-19T01:13:52.317Z,0
2018-07-19T01:14:54.308Z,0
2018-07-19T01:15:56.147Z,0
2018-07-19T01:16:58.045Z,0
2018-07-19T01:17:59.656Z,0
2018-07-19T01:19:01.427Z,0
2018-07-19T01:20:03.275Z,0
2018-07-19T01:21:05.181Z,0
2018-07-19T01:22:06.781Z,0
2018-07-19T01:23:08.520Z,0
2018-07-19T01:24:10.122Z,0
2018-07-19T01:25:11.809Z,0
2018-07-19T01:26:13.452Z,0
2018-07-19T01:27:15.214Z,0
2018-07-19T01:28:16.780Z,0
2018-07-19T01:29:18.513Z,0
2018-07-19T01:30:20.220Z,0
2018-07-19T01:31:22.007Z,0
2018-07-19T01:32:23.682Z,0
2018-07-19T01:33:25.269Z,0
2018-07-19T01:34:26.841Z,0
2018-07-19T01:35:28.643Z,0
2018-07-19T01:36:30.296Z,0
2018-07-19T01:37:32.029Z,0
2018-07-19T01:38:33.786Z,0
2018-07-19T01:39:35.422Z,0
2018-07-19T01:40:37.246Z,0
2018-07-19T01:41:38.972Z,0
2018-07-19T01:42:40.736Z,0
2018-07-19T01:43:42.444Z,0
2018-07-19T01:44:44.152Z,0
2018-07-19T01:45:45.827Z,0
2018-07-19T01:46:47.633Z,0
2018-07-19T01:47:49.332Z,0
2018-07-19T01:48:50.815Z,0
2018-07-19T01:49:52.508Z,0
2018-07-19T01:50:54.206Z,0
2018-07-19T01:51:55.938Z,0
2018-07-19T01:52:57.613Z,0
2018-07-19T01:53:59.390Z,0
2018-07-19T01:55:02.780Z,0
2018-07-19T01:56:04.389Z,0
2018-07-19T01:57:06.154Z,0
2018-07-19T01:58:07.798Z,0
2018-07-19T01:59:09.318Z,0
2018-07-19T02:00:11.117Z,0
2018-07-19T02:01:12.761Z,0
2018-07-19T02:02:14.486Z,0
2018-07-19T02:03:16.098Z,0
2018-07-19T02:04:17.835Z,0
2018-07-19T02:05:19.367Z,0
2018-07-19T02:06:20.952Z,0
2018-07-19T02:07:22.487Z,0
2018-07-19T02:08:24.252Z,0
2018-07-19T02:09:25.914Z,0
2018-07-19T02:10:27.620Z,0
2018-07-19T02:11:29.361Z,0
2018-07-19T02:12:30.883Z,0
2018-07-19T02:13:32.625Z,0
2018-07-19T02:14:34.271Z,0
2018-07-19T02:15:35.958Z,0
2018-07-19T02:16:37.469Z,0
2018-07-19T02:17:39.102Z,0
2018-07-19T02:18:40.618Z,0
2018-07-19T02:19:42.250Z,0
2018-07-19T02:20:44.021Z,0
2018-07-19T02:21:45.752Z,0
2018-07-19T02:22:47.473Z,0
2018-07-19T02:23:49.117Z,0
2018-07-19T02:24:50.765Z,0
2018-07-19T02:25:52.478Z,0
2018-07-19T02:26:54.020Z,0
2018-07-19T02:27:55.589Z,0
2018-07-19T02:28:57.179Z,0
2018-07-19T02:29:58.734Z,0
2018-07-19T02:31:00.454Z,0
2018-07-19T02:32:02.262Z,0
2018-07-19T02:33:03.995Z,0
2018-07-19T02:34:05.771Z,0
2018-07-19T02:35:07.561Z,0
2018-07-19T02:36:09.386Z,0
2018-07-19T02:37:11.175Z,0
2018-07-19T02:38:12.893Z,0
2018-07-19T02:39:14.687Z,0
2018-07-19T02:40:16.281Z,0
2018-07-19T02:41:17.783Z,0
2018-07-19T02:42:19.545Z,0
2018-07-19T02:43:21.340Z,0
2018-07-19T02:44:23.083Z,0
2018-07-19T02:45:24.686Z,0
2018-07-19T02:46:26.422Z,0
2018-07-19T02:47:28.110Z,0
2018-07-19T02:48:29.759Z,0
2018-07-19T02:49:31.566Z,0
2018-07-19T02:50:33.361Z,0
2018-07-19T02:51:35.051Z,0
2018-07-19T02:52:36.695Z,0
2018-07-19T02:53:38.397Z,0
2018-07-19T02:54:39.903Z,0
2018-07-19T02:55:41.661Z,0
2018-07-19T02:56:43.298Z,0
2018-07-19T02:57:44.890Z,0
2018-07-19T02:58:46.547Z,0
2018-07-19T02:59:48.204Z,0
2018-07-19T03:00:50.013Z,0
2018-07-19T03:01:51.610Z,0
2018-07-19T03:02:53.300Z,0
2018-07-19T03:03:55.010Z,0
2018-07-19T03:04:56.644Z,0
2018-07-19T03:05:58.305Z,0
2018-07-19T03:06:59.989Z,0
2018-07-19T03:08:01.721Z,0
2018-07-19T03:09:03.502Z,0
2018-07-19T03:10:05.200Z,0
2018-07-19T03:11:07.039Z,0
2018-07-19T03:12:08.594Z,0
2018-07-19T03:13:10.156Z,0
2018-07-19T03:14:11.904Z,0
2018-07-19T03:15:13.470Z,0
2018-07-19T03:16:15.210Z,0
2018-07-19T03:17:16.951Z,0
2018-07-19T03:18:18.586Z,0
2018-07-19T03:19:20.117Z,0
2018-07-19T03:20:21.881Z,0
2018-07-19T03:21:23.614Z,0
2018-07-19T03:22:25.349Z,0
2018-07-19T03:23:27.057Z,0
2018-07-19T03:24:28.745Z,0
2018-07-19T03:25:30.528Z,0
2018-07-19T03:26:32.098Z,5
2018-07-19T03:27:33.893Z,5
2018-07-19T03:28:35.703Z,5
2018-07-19T03:29:37.351Z,5
2018-07-19T03:30:39.090Z,5
2018-07-19T03:31:40.654Z,5
2018-07-19T03:32:42.384Z,5
2018-07-19T03:33:44.017Z,5
2018-07-19T03:34:45.757Z,10
2018-07-19T03:35:47.475Z,10
2018-07-19T03:36:49.246Z,10
2018-07-19T03:37:50.968Z,10
2018-07-19T03:38:52.714Z,10
2018-07-19T03:39:54.369Z,10
2018-07-19T03:40:56.083Z,15
2018-07-19T03:41:57.789Z,15
2018-07-19T03:42:59.425Z,15
2018-07-19T03:44:01.154Z,15
2018-07-19T03:45:02.975Z,15
2018-07-19T03:46:04.526Z,20
2018-07-19T03:47:06.418Z,20
2018-07-19T03:48:08.126Z,20
2018-07-19T03:49:09.784Z,20
2018-07-19T03:50:11.465Z,25
2018-07-19T03:51:13.225Z,25
2018-07-19T03:52:15.010Z,25
2018-07-19T03:53:17.651Z,25
2018-07-19T03:54:19.397Z,30
2018-07-19T03:55:21.071Z,30
2018-07-19T03:56:22.734Z,30
2018-07-19T03:57:24.460Z,30
2018-07-19T03:58:26.276Z,35
2018-07-19T03:59:28.043Z,35
2018-07-19T04:00:29.759Z,35
2018-07-19T04:01:31.542Z,40
2018-07-19T04:02:33.191Z,40
2018-07-19T04:03:34.866Z,40
2018-07-19T04:04:36.748Z,45
2018-07-19T04:05:38.324Z,45
2018-07-19T04:06:40.050Z,45
2018-07-19T04:07:41.467Z,45
2018-07-19T04:08:43.240Z,50
2018-07-19T04:09:44.952Z,50
2018-07-19T04:10:46.685Z,50
2018-07-19T04:11:48.524Z,55
2018-07-19T04:12:50.202Z,55
2018-07-19T04:13:51.852Z,55
2018-07-19T04:14:53.647Z,60
2018-07-19T04:15:55.324Z,60
2018-07-19T04:16:57.062Z,60
2018-07-19T04:17:58.831Z,65
2018-07-19T04:19:00.377Z,65
2018-07-19T04:20:01.941Z,65
2018-07-19T04:21:03.653Z,70
2018-07-19T04:22:05.325Z,70
2018-07-19T04:23:07.014Z,70
2018-07-19T04:24:08.826Z,75
2018-07-19T04:25:10.597Z,75
2018-07-19T04:26:11.982Z,75
2018-07-19T04:27:13.664Z,80
2018-07-19T04:28:15.358Z,80
2018-07-19T04:29:17.065Z,80
2018-07-19T04:30:18.829Z,85
2018-07-19T04:31:20.446Z,85
2018-07-19T04:32:22.214Z,85
2018-07-19T04:33:23.861Z,90
2018-07-19T04:34:25.338Z,90
2018-07-19T04:35:27.124Z,90
2018-07-19T04:36:28.740Z,95
2018-07-19T04:37:30.417Z,95
2018-07-19T04:38:32.110Z,95
2018-07-19T04:39:33.881Z,100
2018-07-19T04:40:35.600Z,105
2018-07-19T04:41:37.229Z,100
2018-07-19T04:42:38.906Z,100
2018-07-19T04:43:40.628Z,105
2018-07-19T04:44:42.326Z,105
2018-07-19T04:45:43.907Z,105
2018-07-19T04:46:45.386Z,105
2018-07-19T04:47:47.845Z,105
2018-07-19T04:48:49.334Z,105
2018-07-19T04:49:51.036Z,115
2018-07-19T04:50:52.811Z,120
2018-07-19T04:51:54.308Z,125
2018-07-19T04:52:56.056Z,125
2018-07-19T04:53:57.745Z,130
2018-07-19T04:54:59.476Z,135
2018-07-19T04:56:00.976Z,135
2018-07-19T04:57:02.745Z,140
2018-07-19T04:58:04.424Z,140
2018-07-19T04:59:05.941Z,145
2018-07-19T05:00:07.637Z,145
2018-07-19T05:01:09.392Z,150
2018-07-19T05:02:11.151Z,150
2018-07-19T05:03:12.765Z,150
2018-07-19T05:04:14.425Z,150
2018-07-19T05:05:15.970Z,155
2018-07-19T05:06:17.701Z,155
2018-07-19T05:07:19.437Z,160
2018-07-19T05:08:20.930Z,160
2018-07-19T05:09:22.448Z,165
2018-07-19T05:10:24.223Z,170
2018-07-19T05:11:25.844Z,170
2018-07-19T05:12:27.442Z,175
2018-07-19T05:13:29.176Z,175
2018-07-19T05:14:30.916Z,175
2018-07-19T05:15:32.409Z,180
2018-07-19T05:16:33.991Z,180
2018-07-19T05:17:35.485Z,185
2018-07-19T05:18:37.340Z,185
2018-07-19T05:19:38.858Z,190
2018-07-19T05:20:40.406Z,190
2018-07-19T05:21:42.166Z,195
2018-07-19T05:22:43.906Z,195
2018-07-19T05:23:45.476Z,200
2018-07-19T05:24:47.002Z,200
2018-07-19T05:25:48.576Z,205
2018-07-19T05:26:50.217Z,205
2018-07-19T05:27:51.880Z,210
2018-07-19T05:28:53.556Z,210
2018-07-19T05:29:55.179Z,215
2018-07-19T05:30:56.988Z,215
2018-07-19T05:31:58.686Z,220
2018-07-19T05:33:00.399Z,220
2018-07-19T05:34:02.064Z,225
2018-07-19T05:35:03.941Z,225
2018-07-19T05:36:05.545Z,230
2018-07-19T05:37:07.024Z,230
2018-07-19T05:38:08.770Z,240
2018-07-19T05:39:10.508Z,235
2018-07-19T05:40:12.347Z,240
2018-07-19T05:41:14.127Z,240
2018-07-19T05:42:15.734Z,245
2018-07-19T05:43:17.439Z,245
2018-07-19T05:44:19.040Z,245
2018-07-19T05:45:20.783Z,250
2018-07-19T05:46:22.438Z,250
2018-07-19T05:47:24.182Z,255
2018-07-19T05:48:25.706Z,260
2018-07-19T05:49:27.309Z,260
2018-07-19T05:50:28.919Z,265
2018-07-19T05:51:30.779Z,265
2018-07-19T05:52:32.428Z,270
2018-07-19T05:53:34.189Z,275
2018-07-19T05:54:35.875Z,275
2018-07-19T05:55:37.375Z,280
2018-07-19T05:56:38.960Z,285
2018-07-19T05:57:40.659Z,285
2018-07-19T05:58:42.187Z,290
2018-07-19T05:59:44.033Z,295
2018-07-19T06:00:45.789Z,295
2018-07-19T06:01:47.504Z,300
2018-07-19T06:02:49.108Z,305
2018-07-19T06:03:50.726Z,305
2018-07-19T06:04:52.412Z,310
2018-07-19T06:05:54.198Z,310
2018-07-19T06:06:55.790Z,315
2018-07-19T06:07:57.597Z,320
2018-07-19T06:08:59.308Z,325
2018-07-19T06:10:00.934Z,330
2018-07-19T06:11:02.521Z,335
2018-07-19T06:12:04.249Z,340
2018-07-19T06:13:05.998Z,345
2018-07-19T06:14:07.710Z,345
2018-07-19T06:15:09.355Z,355
2018-07-19T06:16:11.102Z,360
2018-07-19T06:17:12.693Z,365
2018-07-19T06:18:14.489Z,375
2018-07-19T06:19:16.216Z,380
2018-07-19T06:20:17.838Z,390
2018-07-19T06:21:19.549Z,395
2018-07-19T06:22:21.304Z,395
2018-07-19T06:23:23.024Z,395
2018-07-19T06:24:24.771Z,400
2018-07-19T06:25:26.423Z,400
2018-07-19T06:26:28.164Z,400
2018-07-19T06:27:29.717Z,405
2018-07-19T06:28:31.516Z,405
2018-07-19T06:29:33.265Z,405
2018-07-19T06:30:34.984Z,410
2018-07-19T06:31:36.769Z,415
2018-07-19T06:32:38.507Z,415
2018-07-19T06:33:40.147Z,415
2018-07-19T06:34:41.898Z,415
2018-07-19T06:35:43.641Z,415
2018-07-19T06:36:45.396Z,420
2018-07-19T06:37:47.127Z,420
2018-07-19T06:38:48.810Z,420
2018-07-19T06:39:50.452Z,425
2018-07-19T06:40:52.231Z,430
2018-07-19T06:41:53.913Z,435
2018-07-19T06:42:55.713Z,445
2018-07-19T06:43:57.304Z,445
2018-07-19T06:44:59.083Z,450
2018-07-19T06:46:00.646Z,450
2018-07-19T06:47:02.288Z,455
2018-07-19T06:48:03.920Z,460
2018-07-19T06:49:05.562Z,460
2018-07-19T06:50:07.289Z,465
2018-07-19T06:51:08.894Z,470
2018-07-19T06:52:10.659Z,475
2018-07-19T06:53:12.248Z,480
2018-07-19T06:54:13.955Z,475
2018-07-19T06:55:15.608Z,475
2018-07-19T06:56:17.255Z,480
2018-07-19T06:57:18.772Z,490
2018-07-19T06:58:20.501Z,500
2018-07-19T06:59:22.207Z,505
2018-07-19T07:00:23.976Z,510
2018-07-19T07:01:25.681Z,505
2018-07-19T07:02:27.379Z,505
2018-07-19T07:03:29.114Z,510
2018-07-19T07:04:30.872Z,515
2018-07-19T07:05:32.690Z,520
2018-07-19T07:06:34.314Z,520
2018-07-19T07:07:36.139Z,525
2018-07-19T07:08:37.942Z,540
2018-07-19T07:09:39.543Z,540
2018-07-19T07:10:41.287Z,550
2018-07-19T07:11:42.980Z,560
2018-07-19T07:12:44.655Z,560
2018-07-19T07:13:46.272Z,560
2018-07-19T07:14:48.038Z,560
2018-07-19T07:15:49.887Z,575
2018-07-19T07:16:51.724Z,565
2018-07-19T07:17:53.399Z,595
2018-07-19T07:18:55.118Z,595
2018-07-19T07:19:57.015Z,605
2018-07-19T07:20:58.643Z,610
2018-07-19T07:22:00.421Z,620
2018-07-19T07:23:02.128Z,620
2018-07-19T07:24:03.917Z,635
2018-07-19T07:25:05.540Z,625
2018-07-19T07:26:07.296Z,640
2018-07-19T07:27:08.914Z,625
2018-07-19T07:28:10.790Z,640
2018-07-19T07:29:12.640Z,635
2018-07-19T07:30:14.233Z,650
2018-07-19T07:31:15.978Z,675
2018-07-19T07:32:17.796Z,700
2018-07-19T07:33:19.590Z,720
2018-07-19T07:34:21.279Z,745
2018-07-19T07:35:22.984Z,775
2018-07-19T07:36:24.794Z,725
2018-07-19T07:37:26.499Z,790
2018-07-19T07:38:28.201Z,740
2018-07-19T07:39:29.981Z,780
2018-07-19T07:40:31.742Z,805
2018-07-19T07:41:33.411Z,820
2018-07-19T07:42:35.145Z,850
2018-07-19T07:43:36.821Z,760
2018-07-19T07:44:38.544Z,875
2018-07-19T07:45:40.292Z,875
2018-07-19T07:46:42.020Z,865
2018-07-19T07:47:43.816Z,755
2018-07-19T07:48:45.506Z,835
2018-07-19T07:49:47.101Z,825
2018-07-19T07:50:48.859Z,730
2018-07-19T07:51:50.613Z,710
2018-07-19T07:52:52.183Z,705
2018-07-19T07:53:54.035Z,660
2018-07-19T07:54:55.868Z,630
2018-07-19T07:55:57.524Z,625
2018-07-19T07:56:59.093Z,625
2018-07-19T07:58:00.849Z,620
2018-07-19T07:59:02.691Z,620
2018-07-19T08:00:04.412Z,655
2018-07-19T08:01:06.049Z,620
2018-07-19T08:02:07.663Z,665
2018-07-19T08:03:09.356Z,625
2018-07-19T08:04:11.165Z,620
2018-07-19T08:05:12.751Z,605
2018-07-19T08:06:14.560Z,605
2018-07-19T08:07:16.353Z,595
2018-07-19T08:08:18.175Z,595
2018-07-19T08:09:19.868Z,610
2018-07-19T08:10:21.430Z,635
2018-07-19T08:11:23.147Z,690
2018-07-19T08:12:24.855Z,570
2018-07-19T08:13:26.969Z,555
2018-07-19T08:14:28.723Z,790
2018-07-19T08:15:30.425Z,780
2018-07-19T08:16:32.202Z,740
2018-07-19T08:17:33.945Z,775
2018-07-19T08:18:36.081Z,660
2018-07-19T08:19:37.937Z,525
2018-07-19T08:20:39.943Z,720
2018-07-19T08:21:41.844Z,750
2018-07-19T08:22:43.554Z,790
2018-07-19T08:23:45.329Z,770
2018-07-19T08:24:46.993Z,655
2018-07-19T08:25:48.691Z,650
2018-07-19T08:26:50.332Z,665
2018-07-19T08:27:52.415Z,555
2018-07-19T08:28:54.307Z,710
2018-07-19T08:29:56.162Z,710
2018-07-19T08:30:58.108Z,750
2018-07-19T08:31:59.916Z,740
2018-07-19T08:33:01.792Z,770
2018-07-19T08:34:03.478Z,645
2018-07-19T08:35:05.428Z,560
2018-07-19T08:36:07.096Z,565
2018-07-19T08:37:09.016Z,650
2018-07-19T08:38:10.654Z,620
2018-07-19T08:39:12.389Z,595
2018-07-19T08:40:14.175Z,585
2018-07-19T08:41:15.749Z,565
2018-07-19T08:42:18.311Z,705
2018-07-19T08:43:20.608Z,635
2018-07-19T08:44:22.515Z,685
2018-07-19T08:45:24.466Z,745
2018-07-19T08:46:26.148Z,595
2018-07-19T08:47:27.877Z,810
2018-07-19T08:48:29.672Z,820
2018-07-19T08:49:31.493Z,820
2018-07-19T08:50:33.251Z,830
2018-07-19T08:51:34.894Z,840
2018-07-19T08:52:36.798Z,835
2018-07-19T08:53:38.449Z,845
2018-07-19T08:54:40.151Z,795
2018-07-19T08:55:41.893Z,855
2018-07-19T08:56:43.527Z,875
2018-07-19T08:57:45.208Z,885
2018-07-19T08:58:46.873Z,890
2018-07-19T08:59:48.505Z,910
2018-07-19T09:00:50.076Z,945
2018-07-19T09:01:51.688Z,960
2018-07-19T09:02:53.258Z,990
2018-07-19T09:03:54.913Z,1010
2018-07-19T09:04:56.660Z,1015
2018-07-19T09:05:58.427Z,1005
2018-07-19T09:07:00.168Z,995
2018-07-19T09:08:02.198Z,970
2018-07-19T09:09:04.011Z,945
2018-07-19T09:10:05.669Z,910
2018-07-19T09:11:07.503Z,900
2018-07-19T09:12:09.303Z,905
2018-07-19T09:13:11.203Z,925
2018-07-19T09:14:13.030Z,955
2018-07-19T09:15:14.804Z,965
2018-07-19T09:16:16.602Z,970
2018-07-19T09:17:18.322Z,985
2018-07-19T09:18:20.067Z,990
2018-07-19T09:19:21.800Z,995
2018-07-19T09:20:23.456Z,1015
2018-07-19T09:21:25.107Z,1065
2018-07-19T09:22:26.786Z,1120
2018-07-19T09:23:28.552Z,1175
2018-07-19T09:24:30.231Z,1210
2018-07-19T09:25:32.015Z,1195
2018-07-19T09:26:33.755Z,1070
2018-07-19T09:27:35.564Z,1100
2018-07-19T09:28:37.233Z,1095
2018-07-19T09:29:39.040Z,1085
2018-07-19T09:30:40.772Z,1000
2018-07-19T09:31:42.551Z,1005
2018-07-19T09:32:44.368Z,1020
2018-07-19T09:33:46.248Z,1080
2018-07-19T09:34:48.030Z,1070
2018-07-19T09:35:49.871Z,1090
2018-07-19T09:36:51.863Z,1265
2018-07-19T09:37:53.519Z,1170
2018-07-19T09:38:55.300Z,1115
2018-07-19T09:39:56.982Z,1285
2018-07-19T09:40:58.956Z,1435
2018-07-19T09:42:00.637Z,1565
2018-07-19T09:43:02.318Z,1365
2018-07-19T09:44:03.986Z,1595
2018-07-19T09:45:05.783Z,1645
2018-07-19T09:46:07.509Z,1785
2018-07-19T09:47:09.216Z,1700
2018-07-19T09:48:10.921Z,1595
2018-07-19T09:49:12.611Z,1830
2018-07-19T09:50:14.358Z,1425
2018-07-19T09:51:16.113Z,1815
2018-07-19T09:52:17.817Z,1865
2018-07-19T09:53:19.491Z,1925
2018-07-19T09:54:21.223Z,1965
2018-07-19T09:55:22.919Z,1930
2018-07-19T09:56:24.613Z,1920
2018-07-19T09:57:26.357Z,1920
2018-07-19T09:58:28.092Z,1890
2018-07-19T09:59:29.934Z,1860
2018-07-19T10:00:31.555Z,1885
2018-07-19T10:01:33.324Z,1905
2018-07-19T10:02:35.001Z,1875
2018-07-19T10:03:36.694Z,1870
2018-07-19T10:04:38.581Z,1875
2018-07-19T10:05:40.344Z,1005
2018-07-19T10:06:42.134Z,830
2018-07-19T10:07:44.057Z,800
2018-07-19T10:08:45.771Z,815
2018-07-19T10:09:47.549Z,840
2018-07-19T10:10:49.344Z,1580
2018-07-19T10:11:51.190Z,1985
2018-07-19T10:12:52.968Z,3890
2018-07-19T10:13:54.661Z,5735
2018-07-19T10:14:56.446Z,4955
2018-07-19T10:15:58.232Z,4570
2018-07-19T10:16:59.997Z,4465
2018-07-19T10:18:01.766Z,4485
2018-07-19T10:19:03.614Z,4360
2018-07-19T10:20:05.271Z,4460
2018-07-19T10:21:07.048Z,4465
2018-07-19T10:22:08.729Z,4270
2018-07-19T10:23:10.465Z,4245
2018-07-19T10:24:12.353Z,4260
2018-07-19T10:25:13.996Z,4345
2018-07-19T10:26:16.193Z,4355
2018-07-19T10:27:17.819Z,4305
2018-07-19T10:28:19.575Z,4405
2018-07-19T10:29:21.417Z,4440
2018-07-19T10:30:23.177Z,4525
2018-07-19T10:31:24.909Z,4450
2018-07-19T10:32:26.610Z,4370
2018-07-19T10:33:28.342Z,4515
2018-07-19T10:34:30.058Z,4585
2018-07-19T10:35:31.862Z,4480
2018-07-19T10:36:33.698Z,4595
2018-07-19T10:37:35.611Z,3680
2018-07-19T10:38:37.385Z,4605
2018-07-19T10:39:39.138Z,4585
2018-07-19T10:40:40.833Z,4500
2018-07-19T10:41:42.493Z,4545
2018-07-19T10:42:44.147Z,4595
2018-07-19T10:43:45.997Z,4665
2018-07-19T10:44:47.767Z,4630
2018-07-19T10:45:49.536Z,4630
2018-07-19T10:46:51.312Z,3995
2018-07-19T10:47:53.034Z,4045
2018-07-19T10:48:54.736Z,3510
2018-07-19T10:49:56.409Z,1570
2018-07-19T10:50:58.169Z,2585
2018-07-19T10:52:00.091Z,4485
2018-07-19T10:53:01.728Z,4525
2018-07-19T10:54:03.406Z,4620
2018-07-19T10:55:05.023Z,4620
2018-07-19T10:56:06.967Z,4760
2018-07-19T10:57:08.747Z,4335
2018-07-19T10:58:10.394Z,4595
2018-07-19T10:59:12.094Z,4635
2018-07-19T11:00:13.802Z,4595
2018-07-19T11:01:15.647Z,4690
2018-07-19T11:02:17.384Z,4705
2018-07-19T11:03:19.109Z,4670
2018-07-19T11:04:20.795Z,4625
2018-07-19T11:05:22.566Z,4640
2018-07-19T11:06:24.232Z,4875
2018-07-19T11:07:26.100Z,4725
2018-07-19T11:08:27.942Z,4660
2018-07-19T11:09:29.723Z,4775
2018-07-19T11:10:31.439Z,4600
2018-07-19T11:11:33.130Z,4425
2018-07-19T11:12:34.910Z,4505
2018-07-19T11:13:36.544Z,4570
2018-07-19T11:14:38.371Z,4570
2018-07-19T11:15:40.121Z,3880
2018-07-19T11:16:41.885Z,2670
2018-07-19T11:17:43.784Z,4055
2018-07-19T11:18:45.594Z,1410
2018-07-19T11:19:48.311Z,2585
2018-07-19T11:20:49.942Z,1440
2018-07-19T11:21:51.793Z,1945
2018-07-19T11:22:53.491Z,3690
2018-07-19T11:23:55.284Z,3325
2018-07-19T11:24:57.052Z,2525
2018-07-19T11:25:58.857Z,4265
2018-07-19T11:27:00.522Z,4640
2018-07-19T11:28:02.269Z,4775
2018-07-19T11:29:03.995Z,1955
2018-07-19T11:30:05.752Z,4460
2018-07-19T11:31:07.569Z,1160
2018-07-19T11:32:09.367Z,1135
2018-07-19T11:33:11.066Z,1175
2018-07-19T11:34:12.815Z,1875
2018-07-19T11:35:14.637Z,1820
2018-07-19T11:36:16.362Z,1445
2018-07-19T11:37:18.255Z,2165
2018-07-19T11:38:20.056Z,4815
2018-07-19T11:39:21.869Z,1450
2018-07-19T11:40:23.847Z,1310
2018-07-19T11:41:25.596Z,4020
2018-07-19T11:42:27.364Z,4595
2018-07-19T11:43:29.133Z,4545
2018-07-19T11:44:30.744Z,4505
2018-07-19T11:45:32.547Z,4170
2018-07-19T11:46:34.300Z,3810
2018-07-19T11:47:36.006Z,4535
2018-07-19T11:48:37.808Z,4420
2018-07-19T11:49:39.613Z,4425
2018-07-19T11:50:41.474Z,4230
2018-07-19T11:51:43.168Z,4260
2018-07-19T11:52:45.043Z,4410
2018-07-19T11:53:46.793Z,4460
2018-07-19T11:54:48.687Z,4475
2018-07-19T11:55:50.415Z,4505
2018-07-19T11:56:52.267Z,4430
2018-07-19T11:57:54.047Z,4435
2018-07-19T11:58:55.899Z,4470
2018-07-19T11:59:57.668Z,4455
2018-07-19T12:00:59.271Z,4535
2018-07-19T12:02:01.001Z,4500
2018-07-19T12:03:02.829Z,4465
2018-07-19T12:04:04.628Z,4450
2018-07-19T12:05:06.481Z,4340
2018-07-19T12:06:08.141Z,4330
2018-07-19T12:07:10.005Z,4425
2018-07-19T12:08:11.719Z,4390
2018-07-19T12:09:13.475Z,4325
2018-07-19T12:10:15.173Z,4325
2018-07-19T12:11:16.944Z,4240
2018-07-19T12:12:18.664Z,4200
2018-07-19T12:13:20.473Z,4205
2018-07-19T12:14:22.258Z,4290
2018-07-19T12:15:23.995Z,3995
2018-07-19T12:16:25.843Z,4215
2018-07-19T12:17:27.520Z,4260
2018-07-19T12:18:29.365Z,4310
2018-07-19T12:19:31.233Z,4340
2018-07-19T12:20:33.117Z,4325
2018-07-19T12:21:34.927Z,4390
2018-07-19T12:22:36.680Z,4205
2018-07-19T12:23:38.323Z,4215
2018-07-19T12:24:40.099Z,4155
2018-07-19T12:25:41.971Z,4185
2018-07-19T12:26:43.692Z,4025
2018-07-19T12:27:45.564Z,4110
2018-07-19T12:28:47.292Z,4185
2018-07-19T12:29:49.160Z,4115
2018-07-19T12:30:51.010Z,4185
2018-07-19T12:31:52.700Z,4205
2018-07-19T12:32:54.405Z,4125
2018-07-19T12:33:56.263Z,4130
2018-07-19T12:34:58.184Z,4165
2018-07-19T12:35:59.865Z,4175
2018-07-19T12:37:01.646Z,4130
2018-07-19T12:38:03.335Z,4210
2018-07-19T12:39:05.039Z,4195
2018-07-19T12:40:06.935Z,4105
2018-07-19T12:41:08.750Z,4080
2018-07-19T12:42:10.666Z,3925
2018-07-19T12:43:12.386Z,4075
2018-07-19T12:44:14.246Z,4475
2018-07-19T12:45:16.016Z,3945
2018-07-19T12:46:17.728Z,4010
2018-07-19T12:47:19.516Z,4105
2018-07-19T12:48:21.341Z,4040
2018-07-19T12:49:23.071Z,1190
2018-07-19T12:50:24.796Z,2230
2018-07-19T12:51:26.584Z,3920
2018-07-19T12:52:28.425Z,4040
2018-07-19T12:53:30.430Z,3970
2018-07-19T12:54:32.163Z,4005
2018-07-19T12:55:33.879Z,4100
2018-07-19T12:56:35.787Z,4105
2018-07-19T12:57:37.497Z,4050
2018-07-19T12:58:39.231Z,3960
2018-07-19T12:59:40.996Z,3915
2018-07-19T13:00:42.751Z,3825
2018-07-19T13:01:44.556Z,3880
2018-07-19T13:02:46.390Z,3875
2018-07-19T13:03:48.243Z,3895
2018-07-19T13:04:50.039Z,3895
2018-07-19T13:05:51.688Z,3820
2018-07-19T13:06:53.439Z,3805
2018-07-19T13:07:55.251Z,3770
2018-07-19T13:08:57.052Z,3685
2018-07-19T13:09:58.778Z,3815
2018-07-19T13:11:00.471Z,3875
2018-07-19T13:12:02.180Z,3875
2018-07-19T13:13:03.907Z,3865
2018-07-19T13:14:05.781Z,3965
2018-07-19T13:15:07.531Z,3990
2018-07-19T13:16:09.260Z,3870
2018-07-19T13:17:11.060Z,3785
2018-07-19T13:18:12.856Z,3810
2018-07-19T13:19:14.668Z,3770
2018-07-19T13:20:16.456Z,3780
2018-07-19T13:21:18.329Z,3770
2018-07-19T13:22:20.016Z,3825
2018-07-19T13:23:21.880Z,3850
2018-07-19T13:24:23.579Z,3780
2018-07-19T13:25:25.412Z,3635
2018-07-19T13:26:27.275Z,3205
2018-07-19T13:27:29.127Z,820
2018-07-19T13:28:30.902Z,830
2018-07-19T13:29:32.745Z,865
2018-07-19T13:30:34.596Z,2345
2018-07-19T13:31:36.424Z,3415
2018-07-19T13:32:38.064Z,2475
2018-07-19T13:33:39.953Z,3055
2018-07-19T13:34:41.685Z,3410
2018-07-19T13:35:43.385Z,3500
2018-07-19T13:36:45.226Z,3565
2018-07-19T13:37:46.975Z,3595
2018-07-19T13:38:48.640Z,3640
2018-07-19T13:39:50.494Z,3540
2018-07-19T13:40:52.174Z,3620
2018-07-19T13:41:53.996Z,3580
2018-07-19T13:42:55.863Z,3340
2018-07-19T13:43:57.628Z,3570
2018-07-19T13:44:59.496Z,3645
2018-07-19T13:46:01.238Z,1965
2018-07-19T13:47:03.024Z,2770
2018-07-19T13:48:04.766Z,3315
2018-07-19T13:49:06.639Z,1545
2018-07-19T13:50:08.326Z,835
2018-07-19T13:51:10.102Z,940
2018-07-19T13:52:11.904Z,2460
2018-07-19T13:53:13.622Z,3290
2018-07-19T13:54:15.292Z,1250
2018-07-19T13:55:17.000Z,3450
2018-07-19T13:56:18.855Z,3465
2018-07-19T13:57:20.733Z,3440
2018-07-19T13:58:22.416Z,3355
2018-07-19T13:59:24.127Z,3315
2018-07-19T14:00:25.935Z,3305
2018-07-19T14:01:27.773Z,3305
2018-07-19T14:02:29.591Z,2110
2018-07-19T14:03:31.353Z,2880
2018-07-19T14:04:33.093Z,3380
2018-07-19T14:05:34.838Z,3235
2018-07-19T14:06:36.660Z,3335
2018-07-19T14:07:38.826Z,3370
2018-07-19T14:08:40.622Z,3450
2018-07-19T14:09:42.334Z,3485
2018-07-19T14:10:44.199Z,3445
2018-07-19T14:11:46.015Z,3395
2018-07-19T14:12:47.835Z,3410
2018-07-19T14:13:49.684Z,3400
2018-07-19T14:14:51.528Z,3445
2018-07-19T14:15:53.264Z,3520
2018-07-19T14:16:54.973Z,3445